State Hospital, South Carolina
Current Conditions -  °F | °C
As of 11:53 AM on Friday 31 Oct 2014 (Local Time) from KCUB Reporting Station
Clear Clear  
Wind Chill: 63°   Ceiling: Unl
Heat Index: 63°   Visibility: 10mi
Dew Point: 46°   Wind: 6mph
Humidity: 54%   Direction: 180°S
Pressure: 29.92"   Gusts: NA
Location:  33.9841°N, 81.0264°W
Report Text: KCUB 311553Z AUTO 18005KT 10SM CLR 17/08 A2992 RMK AO2 SLP129 T01720078
Loading
Personal Weather Stations






























Interactive Weather Map
Tropical Storm Tracking
New forecast layout! Learn more

10-Day Weather Forecast

Advertisements
Track Severe Weather on mobile